Historyczne dane pomiarowe

Dodano dane terminowe – wersja testowa.

Dane z okresu 1951-2019

Wersja bazy: 1.34 [2019-03-16, lista zmian], aktualizacja planowana na 2019-04-15

Dane meteo z obszaru Polski uzyskane na podstawie danych udostępnionych przez Instytut Meteorologii i Gospodarki Wodnej – Państwowy Instytut Badawczy.

 

Wybierz Datę:    

       

TemperaturaWilgotnośćZachmurzenieWiatrCiśnienieWidzialnośćZjawiska
 Data    tng td wb rh cc ccl cl cm ch dir g1 g2 mslp ppp      
1999-08-02 00:00:00 13.8--- 11.4 12.485wxwxwx1wx--1018.3 993.7 0.0---wx
1999-08-02 01:00:00 13.1--- 11.0 11.987wxwx1wx--1018.3 993.6----wx
1999-08-02 02:00:00 12.2--- 10.4 11.289wxwxwx1wx--1018.5 993.7----wx
1999-08-02 03:00:00 11.9--- 10.5 11.191wxwxwx2wx--1018.5 993.7----wx
1999-08-02 04:00:00 10.5--- 9.6 10.094wxwxwx2wx--1018.6 993.7----wx
1999-08-02 05:00:00 13.0--- 11.2 12.089wxwxwxwx1wx--1018.7 994.0----wx
1999-08-02 06:00:00 14.9--- 11.8 13.182wxwxwx0wx--1018.4 993.9 0.0---wx
1999-08-02 07:00:00 19.2--- 13.1 15.568wxwxwxwx1wx--1018.0 993.8----wx
1999-08-02 08:00:00 21.1--- 12.7 16.059wxwxwxwx2wx--1017.7 993.7----wx
1999-08-02 09:00:00 22.8--- 11.8 16.250wxwxwxwx3wx--1017.5 993.6----wx
1999-08-02 10:00:00 24.1--- 9.5 15.639wxwxwxwx3wx--1017.2 993.4----wx
1999-08-02 11:00:00 22.4--- 11.5 15.950wxwxwx4wx--1017.2 993.3----wx
1999-08-02 12:00:00 22.3--- 10.3 15.347wxwxwxwx2wx--1017.3 993.4 0.0---wx
1999-08-02 13:00:00 23.7--- 8.4 15.038wxwxwxwx2wx--1016.8 993.0----wx
1999-08-02 14:00:00 23.8--- 9.0 15.339wxwxwxwx3wx--1016.5 992.7----wx
1999-08-02 15:00:00 24.0--- 7.9 14.936wxwxwxwxwx2wx--1016.3 992.6----wx
1999-08-02 16:00:00 23.7--- 9.1 15.340wxwxwxwx2wx--1016.1 992.3----wx
1999-08-02 17:00:00 22.0--- 10.4 15.248wxwxwxwx2wx--1016.3 992.4----wx
1999-08-02 18:00:00 21.0--- 11.6 15.455wxwxwx2wx--1016.4 992.4 0.0---wx
1999-08-02 19:00:00 20.2--- 11.4 15.057wxwxwx1wx--1016.8 992.7----wx
1999-08-02 20:00:00 19.0--- 11.5 14.662wxwxwxwx2wx--1017.3 993.1----wx
1999-08-02 21:00:00 17.0--- 9.5 12.861wxwxwx2wx--1017.5 993.2----wx
1999-08-02 22:00:00 15.6--- 11.1 13.074wxwx1wx--1017.6 993.1----wx
1999-08-02 23:00:00 12.4--- 10.1 11.186wxwxwx0wx--1017.5 992.8----wx

 

Źródłem pochodzenia danych jest Instytut Meteorologii i Gospodarki Wodnej – Państwowy Instytut Badawczy. Dane Instytutu Meteorologii i Gospodarki Wodnej – Państwowego Instytutu Badawczego zostały przetworzone.

Dane źródłowe można odnaleźć na stronie https://dane.imgw.pl